Time;durP1;ratioP1;P1;durP2;ratioP2;P2;SDS_P1;SDS_P2;PMS_P1;PMS_P2;Temp;Humidity;BMP_temperature;BMP_pressure;BME280_temperature;BME280_humidity;BME280_pressure;Samples;Min_cycle;Max_cycle;Signal;HPM_P1;HPM_P2
2024/01/29 00:01:51;;;;;;;5.32;4.50;;;9.60;99.90;;;;;;5047053;28;20044;-78
2024/01/29 00:04:16;;;;;;;5.03;4.18;;;9.50;99.90;;;;;;5065763;28;20044;-75
2024/01/29 00:06:42;;;;;;;8.80;4.78;;;9.50;99.90;;;;;;5047646;28;20036;-76
2024/01/29 00:09:08;;;;;;;5.43;4.25;;;9.40;99.90;;;;;;5072801;28;20060;-75
2024/01/29 00:11:33;;;;;;;5.57;4.60;;;9.50;99.90;;;;;;5046193;28;20040;-75
2024/01/29 00:14:00;;;;;;;4.88;4.30;;;9.40;99.90;;;;;;5065905;28;20490;-79
2024/01/29 00:16:26;;;;;;;5.78;4.82;;;9.30;99.90;;;;;;5061478;28;20048;-75
2024/01/29 00:18:51;;;;;;;5.97;4.72;;;9.30;99.90;;;;;;5044201;28;20365;-74
2024/01/29 00:21:17;;;;;;;5.95;4.50;;;9.30;99.90;;;;;;5047995;28;20040;-76
2024/01/29 00:23:43;;;;;;;7.18;4.53;;;9.20;1.00;;;;;;5049152;28;20137;-79
2024/01/29 00:26:08;;;;;;;6.32;5.03;;;9.30;99.90;;;;;;5048846;28;20041;-77
2024/01/29 00:28:34;;;;;;;5.50;4.72;;;9.30;99.90;;;;;;5046475;28;20044;-77
2024/01/29 00:31:00;;;;;;;7.65;4.75;;;9.20;99.90;;;;;;5045893;28;20060;-75
2024/01/29 00:33:25;;;;;;;5.00;4.35;;;9.20;1.00;;;;;;5069705;28;20701;-77
2024/01/29 00:35:51;;;;;;;5.65;4.50;;;9.10;1.00;;;;;;5046819;28;20474;-76
2024/01/29 00:38:17;;;;;;;7.07;4.68;;;9.10;1.00;;;;;;5034203;28;20039;-76
2024/01/29 00:40:42;;;;;;;5.90;4.65;;;9.10;1.00;;;;;;5046997;28;20035;-81
2024/01/29 00:43:08;;;;;;;6.50;4.70;;;9.00;1.00;;;;;;5049576;28;20127;-76
2024/01/29 00:45:34;;;;;;;6.45;4.40;;;9.00;14.80;;;;;;5040708;28;20122;-76
2024/01/29 00:47:59;;;;;;;5.55;4.45;;;8.90;99.90;;;;;;5047735;28;20565;-76
2024/01/29 00:50:25;;;;;;;4.70;4.20;;;8.90;99.90;;;;;;5064000;28;20142;-74
2024/01/29 00:52:51;;;;;;;7.28;4.70;;;8.90;99.90;;;;;;5029229;28;20120;-75
2024/01/29 00:55:17;;;;;;;7.65;4.60;;;8.80;99.90;;;;;;5065425;28;20048;-76
2024/01/29 00:57:42;;;;;;;6.43;4.55;;;8.80;99.90;;;;;;5062490;28;20040;-76
2024/01/29 01:00:09;;;;;;;5.93;4.63;;;8.80;99.90;;;;;;5064765;28;20452;-77
2024/01/29 01:02:35;;;;;;;7.65;5.05;;;8.90;99.90;;;;;;5030451;28;20406;-78
2024/01/29 01:05:01;;;;;;;4.63;4.20;;;8.80;99.90;;;;;;5050112;28;20362;-78
2024/01/29 01:07:27;;;;;;;5.63;4.88;;;8.80;99.90;;;;;;5049244;28;20048;-78
2024/01/29 01:09:53;;;;;;;5.57;4.53;;;8.70;1.00;;;;;;5066685;28;20754;-77
2024/01/29 01:12:19;;;;;;;6.38;4.78;;;8.70;1.00;;;;;;5047054;28;20094;-78
2024/01/29 01:14:44;;;;;;;5.80;4.20;;;8.80;99.90;;;;;;5047451;28;20385;-78
2024/01/29 01:17:10;;;;;;;6.50;4.72;;;8.60;1.00;;;;;;5058934;28;20044;-78
2024/01/29 01:19:36;;;;;;;5.68;4.15;;;8.50;89.40;;;;;;5048682;28;20048;-80
2024/01/29 01:22:02;;;;;;;4.95;4.45;;;8.50;99.90;;;;;;5049292;28;20040;-77
2024/01/29 01:24:27;;;;;;;5.80;4.63;;;8.50;99.90;;;;;;5064939;28;20033;-78
2024/01/29 01:26:53;;;;;;;4.80;4.28;;;8.50;99.90;;;;;;5048474;28;20135;-79
2024/01/29 01:29:19;;;;;;;4.90;4.40;;;8.40;99.90;;;;;;5049271;28;20032;-78
2024/01/29 01:31:44;;;;;;;5.70;4.63;;;8.40;1.00;;;;;;5040606;28;20052;-78
2024/01/29 01:34:10;;;;;;;5.03;4.22;;;8.40;1.00;;;;;;5065663;28;20029;-80
2024/01/29 01:36:36;;;;;;;5.40;4.70;;;8.30;1.00;;;;;;5049904;28;20511;-77
2024/01/29 01:39:02;;;;;;;4.50;4.10;;;8.30;99.90;;;;;;5049249;28;20028;-79
2024/01/29 01:41:27;;;;;;;5.28;4.32;;;8.30;99.90;;;;;;5064635;28;20495;-76
2024/01/29 01:43:53;;;;;;;5.75;4.97;;;8.20;99.90;;;;;;5058616;28;20041;-78
2024/01/29 01:46:21;;;;;;;4.80;4.30;;;8.20;99.90;;;;;;5025576;28;20032;-79
2024/01/29 01:48:50;;;;;;;7.47;4.47;;;8.20;99.90;;;;;;5047290;28;20067;-77
2024/01/29 01:51:18;;;;;;;5.88;4.93;;;8.20;99.90;;;;;;5042966;28;20047;-77
2024/01/29 01:53:45;;;;;;;6.45;4.47;;;8.30;99.90;;;;;;5044243;28;20064;-78
2024/01/29 01:56:12;;;;;;;5.00;4.50;;;8.20;99.90;;;;;;5064305;28;20040;-77
2024/01/29 01:58:41;;;;;;;6.25;4.55;;;8.20;1.00;;;;;;5073574;28;20572;-76
2024/01/29 02:01:07;;;;;;;6.95;4.55;;;8.10;1.00;;;;;;5050264;28;20115;-76
2024/01/29 02:03:33;;;;;;;6.45;4.80;;;8.10;73.80;;;;;;5064880;28;20735;-77
2024/01/29 02:05:59;;;;;;;5.78;4.60;;;8.00;99.60;;;;;;5048774;28;20037;-80
2024/01/29 02:08:25;;;;;;;6.50;4.78;;;8.20;99.90;;;;;;5055025;28;20040;-80
2024/01/29 02:10:53;;;;;;;5.45;4.43;;;8.20;21.30;;;;;;5074200;28;20071;-79
2024/01/29 02:13:18;;;;;;;5.38;4.68;;;8.10;73.80;;;;;;5051062;28;20087;-76
2024/01/29 02:15:44;;;;;;;5.47;4.90;;;8.10;99.90;;;;;;5042347;28;20046;-78
2024/01/29 02:18:10;;;;;;;6.90;4.63;;;8.20;85.30;;;;;;5064717;28;20051;-79
2024/01/29 02:20:35;;;;;;;6.03;4.80;;;8.10;89.40;;;;;;5058775;28;20076;-78
2024/01/29 02:23:02;;;;;;;5.63;4.78;;;8.00;99.90;;;;;;5063312;28;20041;-79
2024/01/29 02:25:28;;;;;;;6.60;4.65;;;8.00;99.90;;;;;;5044572;28;20045;-79
2024/01/29 02:27:54;;;;;;;6.10;5.00;;;8.00;99.90;;;;;;5061764;28;20041;-76
2024/01/29 02:30:19;;;;;;;7.90;5.07;;;8.00;99.90;;;;;;5047164;28;20040;-78
2024/01/29 02:32:45;;;;;;;7.07;4.85;;;7.90;99.90;;;;;;5064986;28;20120;-74
2024/01/29 02:35:11;;;;;;;6.20;5.18;;;7.90;99.90;;;;;;5015362;28;20362;-81
2024/01/29 02:37:37;;;;;;;7.18;4.97;;;8.00;99.90;;;;;;5048763;28;20048;-78
2024/01/29 02:40:04;;;;;;;6.15;4.75;;;8.00;99.90;;;;;;5050081;28;20506;-77
2024/01/29 02:42:30;;;;;;;6.03;4.50;;;7.90;99.90;;;;;;5031198;28;20122;-79
2024/01/29 02:44:55;;;;;;;5.55;4.90;;;7.90;99.90;;;;;;5077418;28;20457;-77
2024/01/29 02:47:21;;;;;;;7.03;5.22;;;8.00;99.90;;;;;;5048694;28;20473;-76
2024/01/29 02:49:47;;;;;;;6.90;4.88;;;7.90;99.90;;;;;;5048861;28;20094;-81
2024/01/29 02:52:13;;;;;;;5.95;5.35;;;8.00;99.90;;;;;;5058507;28;20097;-77
2024/01/29 02:54:39;;;;;;;6.30;4.70;;;7.80;99.90;;;;;;5064830;28;20047;-78
2024/01/29 02:57:05;;;;;;;6.05;5.05;;;7.80;99.90;;;;;;5050105;28;20040;-77
2024/01/29 02:59:31;;;;;;;6.55;4.65;;;7.80;99.90;;;;;;5091807;27;20040;-75
2024/01/29 03:01:57;;;;;;;5.40;4.72;;;7.70;1.00;;;;;;5051036;28;20040;-77
2024/01/29 03:04:23;;;;;;;6.38;4.90;;;7.70;1.00;;;;;;5064534;28;20123;-79
2024/01/29 03:06:49;;;;;;;5.80;4.88;;;7.70;1.00;;;;;;5050211;28;20041;-74
2024/01/29 03:09:15;;;;;;;6.30;5.07;;;7.60;1.00;;;;;;5048626;28;20059;-81
2024/01/29 03:11:44;;;;;;;7.38;5.43;;;7.60;1.00;;;;;;5052314;28;20077;-74
2024/01/29 03:14:10;;;;;;;5.38;4.88;;;7.50;1.00;;;;;;5047692;28;20033;-78
2024/01/29 03:16:36;;;;;;;5.85;5.20;;;7.60;1.00;;;;;;5047024;28;20383;-76
2024/01/29 03:19:02;;;;;;;5.70;5.10;;;7.50;1.00;;;;;;5068470;28;20549;-75
2024/01/29 03:21:27;;;;;;;5.70;5.10;;;7.50;1.00;;;;;;5052048;28;20059;-76
2024/01/29 03:23:54;;;;;;;6.45;5.70;;;7.50;6.50;;;;;;5051435;28;20032;-76
2024/01/29 03:26:20;;;;;;;6.10;5.32;;;7.70;12.00;;;;;;5049486;28;20044;-75
2024/01/29 03:28:46;;;;;;;7.78;5.35;;;7.40;19.10;;;;;;5052700;28;20040;-78
2024/01/29 03:31:12;;;;;;;6.63;5.63;;;7.60;19.30;;;;;;5045974;28;20048;-75
2024/01/29 03:33:37;;;;;;;6.03;4.95;;;7.60;7.60;;;;;;5065380;28;20040;-76
2024/01/29 03:36:04;;;;;;;6.07;5.15;;;7.60;14.00;;;;;;5066863;28;20086;-76
2024/01/29 03:38:30;;;;;;;7.22;5.10;;;7.60;8.70;;;;;;5066797;28;20043;-80
2024/01/29 03:40:55;;;;;;;6.00;5.38;;;7.60;17.20;;;;;;5063074;28;20459;-77
2024/01/29 03:43:21;;;;;;;6.25;5.50;;;7.50;12.90;;;;;;5065943;28;20443;-77
2024/01/29 03:45:47;;;;;;;7.03;5.53;;;7.70;1.00;;;;;;5031922;28;20044;-79
2024/01/29 03:48:13;;;;;;;7.55;5.90;;;7.60;1.00;;;;;;5064334;28;20528;-78
2024/01/29 03:50:38;;;;;;;6.38;5.22;;;7.60;1.00;;;;;;5051723;28;20041;-79
2024/01/29 03:53:04;;;;;;;6.85;5.65;;;7.60;1.00;;;;;;5068789;28;20048;-78
2024/01/29 03:55:30;;;;;;;6.80;5.57;;;7.60;1.00;;;;;;5052379;28;20048;-79
2024/01/29 03:57:55;;;;;;;6.40;5.60;;;7.50;1.00;;;;;;5063240;28;20029;-81
2024/01/29 04:00:23;;;;;;;7.40;5.32;;;7.60;1.00;;;;;;5066618;28;20032;-75
2024/01/29 04:02:49;;;;;;;6.20;5.60;;;7.50;3.70;;;;;;5044071;28;20033;-80
2024/01/29 04:05:16;;;;;;;6.07;5.45;;;7.40;22.30;;;;;;5052399;28;20173;-75
2024/01/29 04:07:42;;;;;;;6.72;5.50;;;7.40;34.40;;;;;;5064650;28;20137;-76
2024/01/29 04:10:08;;;;;;;6.68;5.80;;;7.40;87.70;;;;;;5049371;28;21646;-79
2024/01/29 04:12:34;;;;;;;6.53;5.47;;;7.30;99.90;;;;;;5048515;28;20036;-78
2024/01/29 04:15:00;;;;;;;7.05;5.43;;;7.20;99.90;;;;;;5032213;28;20045;-79
2024/01/29 04:17:25;;;;;;;8.93;6.30;;;7.20;99.90;;;;;;5043520;28;20442;-76
2024/01/29 04:19:51;;;;;;;6.50;5.40;;;7.30;99.90;;;;;;5027922;28;20040;-76
2024/01/29 04:22:17;;;;;;;6.05;5.35;;;7.20;99.90;;;;;;5059706;28;20120;-78
2024/01/29 04:24:43;;;;;;;7.93;5.95;;;7.30;99.90;;;;;;5052558;28;20190;-78
2024/01/29 04:27:08;;;;;;;7.72;5.80;;;7.20;99.90;;;;;;5031820;28;20036;-78
2024/01/29 04:29:34;;;;;;;6.85;5.72;;;7.10;99.90;;;;;;5032728;28;20036;-77
2024/01/29 04:32:00;;;;;;;5.88;5.30;;;7.20;99.90;;;;;;5044349;28;20209;-77
2024/01/29 04:34:25;;;;;;;6.78;5.85;;;7.00;99.90;;;;;;5051301;28;20094;-79
2024/01/29 04:36:51;;;;;;;7.68;5.55;;;7.00;99.90;;;;;;5033355;28;20036;-79
2024/01/29 04:39:17;;;;;;;7.47;5.80;;;6.90;99.90;;;;;;5045899;28;20056;-76
2024/01/29 04:41:42;;;;;;;7.45;5.95;;;6.80;99.90;;;;;;5063883;28;20606;-76
2024/01/29 04:44:08;;;;;;;7.22;5.88;;;6.90;99.90;;;;;;5028805;28;20045;-78
2024/01/29 04:46:34;;;;;;;7.82;6.30;;;6.80;99.90;;;;;;5044269;28;20245;-76
2024/01/29 04:48:59;;;;;;;7.78;5.93;;;6.90;99.90;;;;;;5050321;28;20580;-75
2024/01/29 04:51:26;;;;;;;7.32;6.00;;;6.80;99.90;;;;;;5045758;28;20044;-76
2024/01/29 04:53:52;;;;;;;8.07;6.80;;;6.90;99.90;;;;;;5069084;28;20071;-77
2024/01/29 04:56:18;;;;;;;8.05;6.13;;;7.00;99.90;;;;;;5052001;28;20129;-75
2024/01/29 04:58:43;;;;;;;6.90;6.00;;;7.00;99.90;;;;;;5064915;28;20170;-76
2024/01/29 05:01:09;;;;;;;7.97;6.53;;;7.00;99.90;;;;;;5028466;28;20177;-79
2024/01/29 05:03:36;;;;;;;7.57;6.63;;;7.00;99.90;;;;;;5062336;28;20041;-77
2024/01/29 05:06:01;;;;;;;6.93;5.93;;;7.00;99.90;;;;;;5050544;28;20036;-75
2024/01/29 05:08:27;;;;;;;7.25;6.55;;;7.00;99.90;;;;;;5062767;28;20102;-79
2024/01/29 05:10:53;;;;;;;7.35;6.40;;;7.00;99.90;;;;;;5046658;28;20719;-76
2024/01/29 05:13:19;;;;;;;7.07;6.30;;;7.00;99.90;;;;;;5062721;28;20052;-75
2024/01/29 05:15:45;;;;;;;7.95;6.30;;;7.00;99.90;;;;;;5061976;28;20044;-78
2024/01/29 05:18:11;;;;;;;8.13;6.25;;;7.10;99.90;;;;;;5063623;28;20036;-74
2024/01/29 05:20:37;;;;;;;7.22;6.53;;;7.20;99.90;;;;;;5067283;28;20040;-77
2024/01/29 05:23:02;;;;;;;7.38;6.40;;;7.10;99.90;;;;;;5045602;28;20040;-77
2024/01/29 05:25:28;;;;;;;8.02;7.22;;;7.30;99.90;;;;;;5048911;28;20052;-75
2024/01/29 05:27:54;;;;;;;8.23;6.95;;;7.10;99.90;;;;;;5048267;28;20048;-78
2024/01/29 05:30:19;;;;;;;7.95;7.15;;;7.20;99.90;;;;;;5049831;28;20078;-76
2024/01/29 05:32:45;;;;;;;7.07;6.40;;;7.10;99.90;;;;;;5050800;28;20101;-74
2024/01/29 05:35:11;;;;;;;7.63;6.82;;;7.10;99.90;;;;;;5051239;28;20072;-78
2024/01/29 05:37:37;;;;;;;7.05;6.35;;;7.10;99.90;;;;;;5051791;28;20032;-76
2024/01/29 05:40:04;;;;;;;8.43;7.05;;;7.20;99.90;;;;;;5053013;28;20062;-77
2024/01/29 05:42:30;;;;;;;9.20;6.70;;;7.10;99.90;;;;;;5068178;28;20090;-77
2024/01/29 05:44:56;;;;;;;8.10;6.72;;;7.20;99.90;;;;;;5064754;28;21538;-77
2024/01/29 05:47:25;;;;;;;8.07;6.88;;;7.20;99.90;;;;;;5069529;28;20127;-79
2024/01/29 05:49:51;;;;;;;8.82;7.90;;;7.10;99.90;;;;;;5052879;28;20055;-76
2024/01/29 05:52:17;;;;;;;8.93;7.95;;;7.20;99.90;;;;;;5054210;28;20393;-76
2024/01/29 05:54:42;;;;;;;8.73;6.55;;;7.10;99.90;;;;;;5049051;28;20063;-75
2024/01/29 05:57:11;;;;;;;8.55;6.63;;;7.10;99.90;;;;;;5069770;28;20469;-80
2024/01/29 05:59:40;;;;;;;11.43;7.55;;;7.20;99.90;;;;;;5053930;28;20041;-77
2024/01/29 06:02:06;;;;;;;8.43;6.88;;;7.30;99.90;;;;;;5065221;28;20047;-80
2024/01/29 06:04:33;;;;;;;7.97;7.07;;;7.10;99.90;;;;;;5068901;28;20110;-80
2024/01/29 06:06:59;;;;;;;7.93;6.97;;;7.20;99.90;;;;;;5068473;28;20045;-80
2024/01/29 06:09:25;;;;;;;8.23;7.43;;;7.20;99.90;;;;;;5066966;28;20102;-78
2024/01/29 06:11:50;;;;;;;9.02;7.25;;;7.10;99.90;;;;;;5034643;28;20485;-76
2024/01/29 06:14:16;;;;;;;8.25;7.35;;;7.30;99.90;;;;;;5046058;28;20041;-75
2024/01/29 06:16:45;;;;;;;8.35;7.07;;;7.20;99.90;;;;;;5052651;28;20037;-79
2024/01/29 06:19:15;;;;;;;8.25;7.40;;;7.20;99.90;;;;;;5064762;28;20040;-79
2024/01/29 06:21:44;;;;;;;7.88;7.07;;;7.20;99.90;;;;;;5068912;28;20032;-78
2024/01/29 06:24:10;;;;;;;8.82;7.68;;;7.20;99.90;;;;;;5051196;28;20037;-78
2024/01/29 06:26:36;;;;;;;9.07;7.00;;;7.30;99.90;;;;;;5067415;28;20094;-82
2024/01/29 06:29:02;;;;;;;9.40;6.93;;;7.40;99.90;;;;;;5068584;28;20040;-77
2024/01/29 06:31:27;;;;;;;8.00;6.40;;;7.40;99.90;;;;;;5061530;28;20059;-78
2024/01/29 06:33:54;;;;;;;9.38;7.25;;;7.30;99.90;;;;;;5052671;28;20039;-76
2024/01/29 06:36:22;;;;;;;7.97;6.90;;;7.30;99.90;;;;;;5031001;28;20473;-78
2024/01/29 06:38:47;;;;;;;7.78;7.00;;;7.30;99.90;;;;;;5047764;28;20040;-78
2024/01/29 06:41:23;;;;;;;7.70;6.90;;;7.30;99.90;;;;;;5047676;28;20055;-80
2024/01/29 06:43:49;;;;;;;10.25;6.88;;;7.30;99.90;;;;;;5067325;28;20036;-79
2024/01/29 06:46:16;;;;;;;8.18;7.38;;;7.40;99.90;;;;;;5061021;28;20055;-79
2024/01/29 06:48:41;;;;;;;7.82;7.05;;;7.30;99.90;;;;;;5048138;28;20402;-77
2024/01/29 06:51:07;;;;;;;9.13;7.00;;;7.30;99.90;;;;;;5065670;28;20040;-75
2024/01/29 06:53:34;;;;;;;8.30;7.45;;;7.30;99.90;;;;;;5049596;28;20044;-78
2024/01/29 06:56:02;;;;;;;9.18;7.70;;;7.30;99.90;;;;;;5049501;28;20915;-79
2024/01/29 06:58:28;;;;;;;8.18;7.38;;;7.30;99.90;;;;;;5033163;28;20032;-78
2024/01/29 07:00:59;;;;;;;8.80;7.53;;;7.30;99.90;;;;;;5042106;28;20110;-74
2024/01/29 07:03:25;;;;;;;8.93;8.02;;;7.30;99.90;;;;;;5046864;28;20396;-82
2024/01/29 07:05:51;;;;;;;8.60;7.40;;;7.40;99.90;;;;;;5047632;28;20048;-82
2024/01/29 07:08:16;;;;;;;10.90;8.65;;;7.50;99.90;;;;;;5046289;28;20032;-78
2024/01/29 07:10:43;;;;;;;10.02;9.02;;;7.30;99.90;;;;;;5043796;28;20044;-78
2024/01/29 07:13:09;;;;;;;9.93;8.48;;;7.60;99.90;;;;;;5060061;28;20048;-79
2024/01/29 07:15:34;;;;;;;7.95;6.80;;;7.50;99.90;;;;;;5053334;28;20072;-77
2024/01/29 07:18:00;;;;;;;9.00;7.75;;;7.40;99.90;;;;;;5045325;28;20029;-79
2024/01/29 07:20:29;;;;;;;8.48;7.60;;;7.40;99.90;;;;;;5046615;28;20044;-80
2024/01/29 07:22:56;;;;;;;8.40;6.88;;;7.30;99.90;;;;;;5045345;28;21826;-79
2024/01/29 07:25:22;;;;;;;8.23;7.40;;;7.50;99.90;;;;;;5063267;28;20135;-79
2024/01/29 07:27:48;;;;;;;10.85;8.45;;;7.30;99.90;;;;;;5061016;28;20085;-78
2024/01/29 07:30:14;;;;;;;8.98;6.93;;;7.50;99.90;;;;;;5063764;28;20040;-80
2024/01/29 07:32:40;;;;;;;9.18;7.43;;;7.30;99.90;;;;;;5051122;28;20044;-82
2024/01/29 07:35:07;;;;;;;8.77;7.13;;;7.30;99.90;;;;;;5055337;28;20040;-79
2024/01/29 07:37:32;;;;;;;9.55;8.55;;;7.50;99.90;;;;;;5066836;28;20032;-81
2024/01/29 07:39:58;;;;;;;9.40;8.40;;;7.30;99.90;;;;;;5067169;28;20887;-78
2024/01/29 07:42:24;;;;;;;10.98;7.68;;;7.30;99.90;;;;;;5052124;28;20658;-81
2024/01/29 07:44:53;;;;;;;10.25;8.18;;;7.20;99.90;;;;;;5064243;28;20119;-79
2024/01/29 07:47:19;;;;;;;8.38;7.20;;;7.50;99.90;;;;;;5061258;28;20618;-82
2024/01/29 07:49:45;;;;;;;9.52;7.25;;;7.40;99.90;;;;;;5062574;28;20064;-79
2024/01/29 07:52:10;;;;;;;9.38;8.30;;;7.30;99.90;;;;;;5063267;28;20053;-79
2024/01/29 07:54:36;;;;;;;10.90;8.50;;;7.50;99.90;;;;;;5051546;28;20087;-82
2024/01/29 07:57:03;;;;;;;10.77;9.68;;;7.50;99.90;;;;;;5066205;28;20054;-77
2024/01/29 07:59:29;;;;;;;9.18;8.13;;;7.60;99.90;;;;;;5049093;28;20083;-82
2024/01/29 08:01:55;;;;;;;9.32;8.43;;;7.60;99.90;;;;;;5046778;28;20102;-79
2024/01/29 08:04:21;;;;;;;9.15;8.25;;;7.60;99.90;;;;;;5042597;28;20076;-79
2024/01/29 08:06:46;;;;;;;9.20;8.30;;;7.60;99.90;;;;;;5048593;28;20500;-79
2024/01/29 08:09:12;;;;;;;9.32;8.43;;;7.60;99.90;;;;;;5029604;28;20041;-78
2024/01/29 08:11:39;;;;;;;9.27;8.07;;;7.60;99.90;;;;;;5063524;28;20046;-82
2024/01/29 08:14:05;;;;;;;8.75;7.85;;;7.70;99.90;;;;;;5026416;28;20040;-82
2024/01/29 08:16:31;;;;;;;9.48;8.10;;;7.60;99.90;;;;;;5068331;28;20036;-84
2024/01/29 08:18:58;;;;;;;9.52;8.52;;;7.60;99.90;;;;;;5042959;28;20041;-80
2024/01/29 08:21:24;;;;;;;9.25;7.97;;;7.90;99.90;;;;;;5042636;28;20075;-77
2024/01/29 08:23:50;;;;;;;9.98;7.75;;;7.90;99.90;;;;;;5048344;28;20068;-84
2024/01/29 08:26:16;;;;;;;10.80;8.43;;;7.80;99.90;;;;;;5039138;28;20041;-79
2024/01/29 08:28:42;;;;;;;9.60;8.23;;;8.00;99.90;;;;;;5064644;28;20048;-77
2024/01/29 08:31:09;;;;;;;9.40;8.40;;;8.20;99.90;;;;;;5044083;28;20032;-82
2024/01/29 08:33:34;;;;;;;9.48;8.43;;;8.30;99.90;;;;;;5056700;28;20045;-79
2024/01/29 08:36:00;;;;;;;10.13;7.90;;;8.60;99.90;;;;;;5051771;28;20075;-80
2024/01/29 08:38:26;;;;;;;9.00;7.10;;;8.60;99.90;;;;;;5034805;28;20037;-82
2024/01/29 08:40:52;;;;;;;8.77;7.88;;;8.90;99.90;;;;;;5033063;28;20049;-83
2024/01/29 08:43:18;;;;;;;9.20;7.70;;;9.10;99.90;;;;;;5022517;28;20758;-81
2024/01/29 08:45:43;;;;;;;8.55;7.75;;;9.10;99.90;;;;;;5040056;28;20496;-82
2024/01/29 08:48:09;;;;;;;8.90;7.57;;;9.10;99.90;;;;;;5044354;28;20048;-84
2024/01/29 08:50:35;;;;;;;9.13;7.85;;;9.10;99.90;;;;;;5044666;28;20056;-84
2024/01/29 08:53:02;;;;;;;8.63;7.43;;;9.40;99.90;;;;;;5060200;28;20521;-83
2024/01/29 08:55:28;;;;;;;8.63;7.45;;;9.40;99.90;;;;;;5086598;28;20044;-79
2024/01/29 08:57:54;;;;;;;8.63;7.75;;;9.50;99.90;;;;;;5066477;28;20052;-81
2024/01/29 09:00:20;;;;;;;10.75;8.15;;;9.50;99.90;;;;;;5026153;28;20040;-81
2024/01/29 09:02:49;;;;;;;8.95;8.15;;;9.70;99.90;;;;;;5060276;28;20071;-81
2024/01/29 09:05:15;;;;;;;8.60;7.80;;;9.60;99.90;;;;;;5043627;28;20137;-83
2024/01/29 09:07:41;;;;;;;8.75;7.95;;;9.70;99.90;;;;;;5060648;28;20060;-81
2024/01/29 09:10:07;;;;;;;9.02;8.13;;;10.00;99.90;;;;;;5029548;28;20075;-82
2024/01/29 09:12:33;;;;;;;8.45;7.20;;;9.90;99.90;;;;;;5043777;28;20044;-80
2024/01/29 09:14:59;;;;;;;10.00;8.00;;;10.10;99.90;;;;;;5050475;28;20044;-86
2024/01/29 09:17:25;;;;;;;8.77;7.88;;;9.90;99.90;;;;;;5025941;28;20053;-82
2024/01/29 09:19:51;;;;;;;8.75;7.95;;;10.10;99.90;;;;;;5081643;28;20045;-82
2024/01/29 09:22:17;;;;;;;8.02;7.22;;;10.10;99.90;;;;;;5027060;28;20037;-85
2024/01/29 09:24:43;;;;;;;9.40;8.38;;;10.10;99.90;;;;;;5066122;28;20512;-82
2024/01/29 09:27:10;;;;;;;9.25;8.27;;;10.20;99.90;;;;;;5056658;28;20037;-84
2024/01/29 09:29:35;;;;;;;11.38;8.55;;;10.20;99.90;;;;;;5028309;28;20037;-81
2024/01/29 09:32:01;;;;;;;8.55;7.72;;;10.60;99.90;;;;;;5055648;28;20048;-83
2024/01/29 09:34:27;;;;;;;9.43;8.40;;;10.60;14.10;;;;;;5061855;28;20119;-82
2024/01/29 09:36:53;;;;;;;10.10;7.60;;;10.80;52.40;;;;;;5044592;28;20039;-82
2024/01/29 09:39:22;;;;;;;9.57;7.70;;;10.90;45.00;;;;;;5041713;28;20177;-84
2024/01/29 09:41:49;;;;;;;9.30;7.80;;;10.90;34.50;;;;;;5040089;28;20033;-83
2024/01/29 09:44:15;;;;;;;9.25;8.10;;;10.80;1.00;;;;;;5070629;28;20174;-81
2024/01/29 09:46:42;;;;;;;8.75;7.65;;;10.90;1.00;;;;;;5061886;28;20124;-84
2024/01/29 09:49:08;;;;;;;10.60;8.02;;;10.90;1.00;;;;;;5051705;28;20060;-85
2024/01/29 09:51:35;;;;;;;9.65;8.52;;;10.90;13.50;;;;;;5045723;28;20177;-82
2024/01/29 09:54:02;;;;;;;10.73;8.10;;;10.90;1.00;;;;;;5034961;28;20045;-85
2024/01/29 09:56:28;;;;;;;9.73;8.27;;;10.80;1.00;;;;;;5064187;28;20052;-82
2024/01/29 09:58:55;;;;;;;9.35;8.45;;;11.00;1.00;;;;;;5067897;28;20048;-83
2024/01/29 10:01:23;;;;;;;8.95;7.75;;;11.00;1.00;;;;;;5065533;28;20048;-80
2024/01/29 10:03:49;;;;;;;13.75;8.38;;;11.00;1.00;;;;;;5051227;28;20075;-85
2024/01/29 10:06:16;;;;;;;9.15;8.13;;;11.00;1.00;;;;;;5051475;28;20396;-82
2024/01/29 10:08:42;;;;;;;9.75;8.52;;;11.00;1.00;;;;;;5051064;28;20080;-84
2024/01/29 10:11:08;;;;;;;9.20;8.30;;;11.00;44.30;;;;;;5051284;28;20107;-80
2024/01/29 10:13:34;;;;;;;9.32;8.32;;;11.00;1.00;;;;;;5048941;28;20087;-81
2024/01/29 10:16:01;;;;;;;9.40;8.38;;;11.20;1.00;;;;;;5033968;28;20122;-81
2024/01/29 10:18:26;;;;;;;10.68;8.60;;;11.30;1.00;;;;;;5037940;28;20040;-80
2024/01/29 10:21:00;;;;;;;12.77;9.23;;;11.50;1.00;;;;;;5054941;28;20032;-81
2024/01/29 10:23:27;;;;;;;10.00;8.70;;;11.40;1.00;;;;;;5033989;28;20512;-83
2024/01/29 10:25:56;;;;;;;10.18;8.70;;;11.50;1.00;;;;;;5027241;28;20048;-82
2024/01/29 10:28:26;;;;;;;10.07;8.52;;;11.40;1.00;;;;;;5053786;28;20041;-83
2024/01/29 10:30:54;;;;;;;9.70;8.60;;;11.50;1.00;;;;;;5038790;28;20189;-81
2024/01/29 10:33:19;;;;;;;10.52;9.45;;;11.70;1.00;;;;;;5045279;28;20421;-81
2024/01/29 10:35:45;;;;;;;10.15;9.20;;;12.00;99.90;;;;;;5035811;28;20041;-79
2024/01/29 10:38:14;;;;;;;10.15;8.50;;;12.30;99.90;;;;;;5070992;28;20036;-83
2024/01/29 10:40:41;;;;;;;8.90;8.02;;;12.70;99.90;;;;;;5053904;28;20033;-84
2024/01/29 10:43:18;;;;;;;10.45;9.10;;;12.60;1.00;;;;;;5052510;28;20043;-82
2024/01/29 10:45:48;;;;;;;10.27;8.70;;;12.60;93.50;;;;;;5069363;28;20056;-84
2024/01/29 10:48:21;;;;;;;10.45;8.82;;;12.80;1.00;;;;;;5069348;28;20139;-83
2024/01/29 10:50:49;;;;;;;9.75;8.35;;;13.00;90.40;;;;;;5050307;28;20071;-81
2024/01/29 10:53:19;;;;;;;10.05;8.40;;;12.90;40.50;;;;;;5033481;28;20041;-82
2024/01/29 10:55:49;;;;;;;11.98;8.65;;;12.70;99.90;;;;;;5045184;28;20036;-81
2024/01/29 10:58:15;;;;;;;12.30;9.05;;;12.50;99.90;;;;;;5054043;28;20683;-86
2024/01/29 11:00:43;;;;;;;9.50;8.50;;;12.40;99.90;;;;;;5053409;28;20396;-82
2024/01/29 11:03:11;;;;;;;11.40;9.02;;;12.20;1.00;;;;;;5054230;28;20068;-82
2024/01/29 11:05:45;;;;;;;10.68;9.57;;;12.00;1.00;;;;;;5053388;28;20044;-80
2024/01/29 11:08:17;;;;;;;10.07;8.95;;;12.00;1.00;;;;;;5069876;28;20036;-80
2024/01/29 11:10:43;;;;;;;11.13;9.05;;;12.00;36.00;;;;;;5048671;28;20060;-81
2024/01/29 11:13:11;;;;;;;10.60;9.50;;;11.90;97.30;;;;;;5053347;28;20087;-81
2024/01/29 11:15:37;;;;;;;11.13;9.63;;;11.90;99.90;;;;;;5052913;28;20193;-84
2024/01/29 11:18:04;;;;;;;10.50;9.25;;;11.80;99.90;;;;;;5070044;28;20041;-81
2024/01/29 11:20:32;;;;;;;11.30;10.10;;;11.90;99.90;;;;;;5051683;28;20496;-81
2024/01/29 11:22:59;;;;;;;14.90;10.10;;;11.80;99.90;;;;;;5050041;28;20079;-82
2024/01/29 11:25:29;;;;;;;12.77;9.55;;;11.70;99.90;;;;;;5033887;28;20041;-80
2024/01/29 11:27:56;;;;;;;13.93;10.48;;;11.80;99.90;;;;;;5051918;28;20040;-80
2024/01/29 11:30:27;;;;;;;12.20;10.13;;;11.80;99.90;;;;;;5068944;28;20033;-82
2024/01/29 11:33:13;;;;;;;12.43;10.88;;;11.80;99.90;;;;;;5051650;28;20028;-81
2024/01/29 11:35:39;;;;;;;12.02;10.68;;;11.80;99.90;;;;;;5051714;28;20044;-83
2024/01/29 11:38:11;;;;;;;13.50;10.23;;;11.80;99.90;;;;;;5019705;28;20047;-82
2024/01/29 11:41:00;;;;;;;12.98;10.43;;;11.90;99.90;;;;;;5052104;28;20071;-80
2024/01/29 11:43:25;;;;;;;13.10;11.52;;;12.00;99.90;;;;;;5063533;28;20048;-81
2024/01/29 11:45:53;;;;;;;12.30;10.95;;;11.80;99.90;;;;;;5068315;28;20047;-84
2024/01/29 11:48:21;;;;;;;13.38;11.18;;;12.00;99.90;;;;;;5052222;28;20126;-86
2024/01/29 11:50:53;;;;;;;13.93;11.73;;;11.80;99.90;;;;;;5034988;28;20078;-82
2024/01/29 11:53:20;;;;;;;14.98;11.50;;;12.00;99.90;;;;;;5064952;28;20049;-83
2024/01/29 11:55:48;;;;;;;12.55;11.13;;;12.00;99.90;;;;;;5068605;28;20048;-81
2024/01/29 11:58:16;;;;;;;13.88;12.38;;;12.10;99.90;;;;;;5052366;28;20032;-83
2024/01/29 12:00:44;;;;;;;12.55;11.13;;;11.90;99.90;;;;;;5067949;28;20033;-81
2024/01/29 12:03:12;;;;;;;13.20;11.23;;;12.20;99.90;;;;;;5049537;28;20702;-82
2024/01/29 12:05:38;;;;;;;13.93;11.35;;;12.10;99.90;;;;;;5071708;28;20070;-82
2024/01/29 12:08:15;;;;;;;13.30;11.45;;;12.30;99.90;;;;;;5048770;28;20037;-83
2024/01/29 12:10:45;;;;;;;15.73;11.73;;;12.40;99.90;;;;;;5074787;28;20038;-84
2024/01/29 12:13:15;;;;;;;17.80;13.00;;;12.30;99.90;;;;;;5031331;28;20045;-82
2024/01/29 12:15:41;;;;;;;18.63;13.63;;;12.60;99.90;;;;;;5068270;28;20540;-84
2024/01/29 12:18:15;;;;;;;17.30;13.60;;;12.50;99.90;;;;;;5052861;28;20037;-86
2024/01/29 12:20:43;;;;;;;22.05;15.13;;;12.60;99.90;;;;;;5059376;28;20044;-82
2024/01/29 12:23:10;;;;;;;18.55;13.25;;;12.40;99.90;;;;;;5032918;28;20588;-83
2024/01/29 12:25:36;;;;;;;20.85;13.98;;;12.50;99.90;;;;;;5052717;28;20670;-82
2024/01/29 12:28:11;;;;;;;19.17;13.48;;;12.40;99.90;;;;;;5052174;28;20089;-84
2024/01/29 12:30:37;;;;;;;20.95;13.80;;;12.50;99.90;;;;;;5034756;28;20465;-82
2024/01/29 12:33:07;;;;;;;19.75;14.02;;;12.40;99.90;;;;;;5035930;28;20088;-82
2024/01/29 12:35:36;;;;;;;19.95;14.52;;;12.60;99.90;;;;;;5034565;28;20067;-82
2024/01/29 12:38:05;;;;;;;22.90;14.15;;;12.40;99.90;;;;;;5036156;28;20145;-85
2024/01/29 12:40:32;;;;;;;21.55;14.77;;;12.20;99.90;;;;;;5051783;28;20040;-84
2024/01/29 12:43:03;;;;;;;20.20;14.55;;;12.10;99.90;;;;;;5032226;28;20054;-83
2024/01/29 12:45:32;;;;;;;21.50;15.40;;;12.30;99.90;;;;;;5051493;28;20056;-83
2024/01/29 12:48:17;;;;;;;19.17;14.50;;;12.00;99.90;;;;;;5051423;28;20481;-83
2024/01/29 12:50:43;;;;;;;20.67;15.35;;;12.30;99.90;;;;;;5061757;28;20075;-82